Time;durP1;ratioP1;P1;durP2;ratioP2;P2;SDS_P1;SDS_P2;PMS_P1;PMS_P2;Temp;Humidity;BMP_temperature;BMP_pressure;BME280_temperature;BME280_humidity;BME280_pressure;Samples;Min_cycle;Max_cycle;Signal;HPM_P1;HPM_P2
2022/12/22 03:26:47;;;;;;;;;;;12.30;99.90;;;;;;6247111;23;20236;-71
2022/12/22 03:29:12;;;;;;;;;;;12.30;99.90;;;;;;6247806;23;19982;-71
2022/12/22 03:31:38;;;;;;;;;;;12.40;99.90;;;;;;6247238;23;19950;-71
2022/12/22 03:34:03;;;;;;;;;;;12.40;99.90;;;;;;6247446;23;19907;-71
2022/12/22 03:36:29;;;;;;;;;;;12.40;99.90;;;;;;6247724;23;20037;-71
2022/12/22 03:38:54;;;;;;;;;;;12.30;99.90;;;;;;6247392;23;20425;-71
2022/12/22 03:46:48;;;;;;;;;;;12.10;99.90;;;;;;6247248;23;19909;-71
2022/12/22 03:49:14;;;;;;;;;;;11.90;99.90;;;;;;6247266;23;19935;-70
2022/12/22 03:51:39;;;;;;;;;;;11.90;99.90;;;;;;6247544;23;19994;-70
2022/12/22 03:54:05;;;;;;;;;;;12.00;99.90;;;;;;6247207;23;19903;-71
2022/12/22 03:56:31;;;;;;;;;;;12.00;99.90;;;;;;6220306;23;20318;-71
2022/12/22 03:58:56;;;;;;;;;;;11.90;99.90;;;;;;6247561;23;19899;-71
2022/12/22 04:01:22;;;;;;;;;;;11.90;99.90;;;;;;6247126;23;19899;-71
2022/12/22 04:03:48;;;;;;;;;;;11.90;99.90;;;;;;6247440;23;19905;-71
2022/12/22 04:06:14;;;;;;;;;;;12.00;99.90;;;;;;6247010;23;19903;-71
2022/12/22 04:08:39;;;;;;;;;;;12.00;99.90;;;;;;6247723;23;19906;-71
2022/12/22 04:13:48;;;;;;;;;;;12.10;99.90;;;;;;6247077;23;19907;-71
2022/12/22 04:16:14;;;;;;;;;;;12.10;99.90;;;;;;6247675;23;19904;-71
2022/12/22 04:18:39;;;;;;;;;;;12.10;99.90;;;;;;6247315;23;19907;-71
2022/12/22 04:21:05;;;;;;;;;;;12.20;99.90;;;;;;6246942;23;19899;-71
2022/12/22 04:23:30;;;;;;;;;;;12.10;99.90;;;;;;6247581;23;20303;-71
2022/12/22 04:25:56;;;;;;;;;;;12.10;99.90;;;;;;6247076;22;19903;-70
2022/12/22 04:28:21;;;;;;;;;;;12.20;99.90;;;;;;6246914;23;19899;-71
2022/12/22 04:30:50;;;;;;;;;;;12.20;99.90;;;;;;6246985;23;19922;-71
2022/12/22 04:33:16;;;;;;;;;;;12.20;99.90;;;;;;6247545;23;19906;-71
2022/12/22 04:35:42;;;;;;;;;;;12.30;99.90;;;;;;6247125;23;19899;-70
2022/12/22 04:38:07;;;;;;;;;;;12.20;99.90;;;;;;6246784;23;20398;-70
2022/12/22 04:40:33;;;;;;;;;;;12.30;99.90;;;;;;6247148;23;20326;-71
2022/12/22 04:42:58;;;;;;;;;;;12.20;99.90;;;;;;6246786;23;19906;-71
2022/12/22 04:45:24;;;;;;;;;;;12.10;99.90;;;;;;6246671;23;19903;-71
2022/12/22 04:47:49;;;;;;;;;;;12.20;99.90;;;;;;6247045;23;19899;-70
2022/12/22 04:50:15;;;;;;;;;;;12.20;99.90;;;;;;6246679;23;20226;-71
2022/12/22 04:52:40;;;;;;;;;;;12.20;99.90;;;;;;6246636;23;19926;-71
2022/12/22 04:55:06;;;;;;;;;;;12.20;99.90;;;;;;6247370;23;19899;-71
2022/12/22 04:57:31;;;;;;;;;;;12.20;99.90;;;;;;6246625;23;19927;-71
2022/12/22 04:59:57;;;;;;;;;;;12.20;99.90;;;;;;6246943;23;19997;-71
2022/12/22 05:02:22;;;;;;;;;;;12.30;99.90;;;;;;6246589;23;20314;-71
2022/12/22 05:04:48;;;;;;;;;;;12.20;99.90;;;;;;6246563;23;19946;-71
2022/12/22 05:07:13;;;;;;;;;;;12.30;99.90;;;;;;6246861;23;19904;-70
2022/12/22 05:09:39;;;;;;;;;;;12.30;99.90;;;;;;6246574;23;20340;-70
2022/12/22 05:12:53;;;;;;;;;;;12.30;99.90;;;;;;6246975;23;19903;-70
2022/12/22 05:14:50;;;;;;;;;;;12.30;99.90;;;;;;6246274;23;19899;-71
2022/12/22 05:17:15;;;;;;;;;;;12.30;99.90;;;;;;6246904;23;19899;-70
2022/12/22 05:19:41;;;;;;;;;;;12.30;99.90;;;;;;6246504;23;20234;-70
2022/12/22 05:22:06;;;;;;;;;;;12.20;99.90;;;;;;6246912;23;20297;-71
2022/12/22 05:24:32;;;;;;;;;;;12.20;99.90;;;;;;6246745;22;19903;-70
2022/12/22 05:26:57;;;;;;;;;;;12.20;99.90;;;;;;6246384;23;19903;-70
2022/12/22 05:29:23;;;;;;;;;;;12.20;99.90;;;;;;6246446;23;20337;-71
2022/12/22 05:31:48;;;;;;;;;;;12.20;99.90;;;;;;6246217;23;19912;-70
2022/12/22 05:34:14;;;;;;;;;;;12.20;99.90;;;;;;6246778;23;19903;-71
2022/12/22 05:36:39;;;;;;;;;;;12.20;99.90;;;;;;6246456;23;19900;-71
2022/12/22 05:39:05;;;;;;;;;;;12.20;99.90;;;;;;6246753;23;19921;-70
2022/12/22 05:41:30;;;;;;;;;;;12.20;99.90;;;;;;6246424;23;20321;-71
2022/12/22 05:43:56;;;;;;;;;;;12.20;99.90;;;;;;6246737;23;20310;-71
2022/12/22 05:46:22;;;;;;;;;;;12.10;99.90;;;;;;6246306;23;19903;-70
2022/12/22 05:48:48;;;;;;;;;;;12.10;99.90;;;;;;6246409;23;19899;-71
2022/12/22 05:51:13;;;;;;;;;;;12.00;99.90;;;;;;6246724;23;19926;-70
2022/12/22 05:53:39;;;;;;;;;;;12.10;99.90;;;;;;6246318;23;19906;-71
2022/12/22 05:56:05;;;;;;;;;;;12.10;99.90;;;;;;6247031;23;19910;-70
2022/12/22 05:58:31;;;;;;;;;;;12.10;99.90;;;;;;6246252;23;19899;-70
2022/12/22 06:00:58;;;;;;;;;;;12.10;99.90;;;;;;6246688;23;20336;-71
2022/12/22 06:03:24;;;;;;;;;;;12.10;99.90;;;;;;6246316;23;19906;-71
2022/12/22 06:05:49;;;;;;;;;;;12.10;99.90;;;;;;6246125;23;19934;-71
2022/12/22 06:08:15;;;;;;;;;;;12.00;99.90;;;;;;6246627;23;19903;-71
2022/12/22 06:10:40;;;;;;;;;;;12.00;99.90;;;;;;6246211;23;19900;-70
2022/12/22 06:13:06;;;;;;;;;;;11.90;99.90;;;;;;6246607;23;19942;-70
2022/12/22 06:15:31;;;;;;;;;;;12.00;99.90;;;;;;6246615;23;19986;-71
2022/12/22 06:17:57;;;;;;;;;;;12.00;99.90;;;;;;6246296;23;19974;-71
2022/12/22 06:20:22;;;;;;;;;;;12.10;99.90;;;;;;6246262;23;20340;-70
2022/12/22 06:22:48;;;;;;;;;;;12.20;99.90;;;;;;6246256;23;19900;-71
2022/12/22 06:25:13;;;;;;;;;;;12.20;99.90;;;;;;6246035;22;19906;-71
2022/12/22 06:27:39;;;;;;;;;;;12.20;99.90;;;;;;6246149;23;19907;-70
2022/12/22 06:30:04;;;;;;;;;;;12.20;99.90;;;;;;6246875;23;19903;-71
2022/12/22 06:32:30;;;;;;;;;;;12.20;99.90;;;;;;6245941;23;19934;-70
2022/12/22 06:34:55;;;;;;;;;;;12.10;99.90;;;;;;6246817;23;19978;-71
2022/12/22 06:37:21;;;;;;;;;;;12.20;99.90;;;;;;6248292;23;20296;-71
2022/12/22 06:39:46;;;;;;;;;;;12.20;99.90;;;;;;6247935;23;19900;-71
2022/12/22 06:44:56;;;;;;;;;;;12.20;99.90;;;;;;6247938;23;19922;-71
2022/12/22 06:47:21;;;;;;;;;;;12.20;99.90;;;;;;6247760;23;20322;-71
2022/12/22 06:49:47;;;;;;;;;;;12.20;99.90;;;;;;6247819;23;20022;-71
2022/12/22 06:52:12;;;;;;;;;;;12.20;99.90;;;;;;6248063;23;20314;-71
2022/12/22 06:54:38;;;;;;;;;;;12.30;99.90;;;;;;6247726;23;19900;-71
2022/12/22 06:57:03;;;;;;;;;;;12.20;99.90;;;;;;6248125;23;19900;-71
2022/12/22 06:59:29;;;;;;;;;;;12.20;99.90;;;;;;6247725;23;19978;-71
2022/12/22 07:01:54;;;;;;;;;;;12.20;99.90;;;;;;6248099;23;19904;-70
2022/12/22 07:04:20;;;;;;;;;;;12.20;99.90;;;;;;6247733;23;19900;-71
2022/12/22 07:06:46;;;;;;;;;;;12.30;99.90;;;;;;6248030;23;19910;-71
2022/12/22 07:09:12;;;;;;;;;;;12.30;99.90;;;;;;6247738;23;19922;-70
2022/12/22 07:11:37;;;;;;;;;;;12.20;99.90;;;;;;6248037;23;20314;-71
2022/12/22 07:14:03;;;;;;;;;;;12.10;99.90;;;;;;6247623;23;20314;-73
2022/12/22 07:16:28;;;;;;;;;;;12.00;99.90;;;;;;6247980;23;19935;-71
2022/12/22 07:18:54;;;;;;;;;;;12.10;99.90;;;;;;6247549;23;20068;-72
2022/12/22 07:21:19;;;;;;;;;;;12.10;99.90;;;;;;6247843;23;20326;-72
2022/12/22 07:23:45;;;;;;;;;;;12.00;99.90;;;;;;6247494;23;19909;-73
2022/12/22 07:26:11;;;;;;;;;;;12.00;99.90;;;;;;6247151;22;19937;-71
2022/12/22 07:28:38;;;;;;;;;;;12.00;99.90;;;;;;6247057;23;19930;-71
2022/12/22 07:31:04;;;;;;;;;;;12.10;99.90;;;;;;6246735;23;19907;-72
2022/12/22 07:33:29;;;;;;;;;;;12.00;99.90;;;;;;6247030;23;19899;-71
2022/12/22 07:36:03;;;;;;;;;;;12.10;99.90;;;;;;6248045;23;19904;-71
2022/12/22 07:38:30;;;;;;;;;;;12.10;99.90;;;;;;6247689;23;19906;-72
2022/12/22 07:40:57;;;;;;;;;;;12.10;99.90;;;;;;6247693;23;19900;-74
2022/12/22 07:43:23;;;;;;;;;;;12.10;99.90;;;;;;6247331;23;19899;-72
2022/12/22 07:45:48;;;;;;;;;;;12.10;99.90;;;;;;6246949;23;19903;-73
2022/12/22 07:51:02;;;;;;;;;;;12.20;99.90;;;;;;6247222;23;20276;-73
2022/12/22 07:53:27;;;;;;;;;;;12.10;99.90;;;;;;6247199;23;19899;-73
2022/12/22 07:55:53;;;;;;;;;;;12.30;99.90;;;;;;6220336;23;19906;-73
2022/12/22 07:58:18;;;;;;;;;;;12.30;99.90;;;;;;6247203;23;19900;-74
2022/12/22 08:00:44;;;;;;;;;;;12.40;99.90;;;;;;6247439;23;19899;-73
2022/12/22 08:03:09;;;;;;;;;;;12.30;99.90;;;;;;6247117;23;19903;-73
2022/12/22 08:05:36;;;;;;;;;;;12.40;99.90;;;;;;6247295;23;19914;-75
2022/12/22 08:08:01;;;;;;;;;;;12.40;99.90;;;;;;6246353;23;19922;-72
2022/12/22 08:10:27;;;;;;;;;;;12.40;99.90;;;;;;6246962;23;19899;-71
2022/12/22 08:12:52;;;;;;;;;;;12.50;99.90;;;;;;6247059;23;19900;-73
2022/12/22 08:15:18;;;;;;;;;;;12.50;99.90;;;;;;6246076;23;19899;-70
2022/12/22 08:17:43;;;;;;;;;;;12.60;99.90;;;;;;6246043;23;19903;-70
2022/12/22 08:20:09;;;;;;;;;;;12.60;99.90;;;;;;6246508;23;19900;-70
2022/12/22 08:22:34;;;;;;;;;;;12.60;99.90;;;;;;6246602;23;19935;-72
2022/12/22 08:25:00;;;;;;;;;;;12.70;99.90;;;;;;6246725;22;20277;-73
2022/12/22 08:27:32;;;;;;;;;;;12.60;99.90;;;;;;6246492;23;19930;-76
2022/12/22 08:29:58;;;;;;;;;;;12.70;99.90;;;;;;6246945;23;20307;-73
2022/12/22 08:32:24;;;;;;;;;;;12.80;99.90;;;;;;6246708;23;19912;-74
2022/12/22 08:34:50;;;;;;;;;;;12.70;99.90;;;;;;6247449;23;19970;-74
2022/12/22 08:37:17;;;;;;;;;;;12.80;99.90;;;;;;6246674;23;19992;-72
2022/12/22 08:39:46;;;;;;;;;;;12.90;99.90;;;;;;6246581;23;19971;-72
2022/12/22 08:42:13;;;;;;;;;;;12.80;99.90;;;;;;6246915;23;19904;-71
2022/12/22 08:44:39;;;;;;;;;;;12.80;99.90;;;;;;6246435;23;19900;-71
2022/12/22 08:47:04;;;;;;;;;;;12.90;99.90;;;;;;6246670;23;19915;-74
2022/12/22 08:49:30;;;;;;;;;;;12.80;99.90;;;;;;6246490;23;19899;-71
2022/12/22 08:51:55;;;;;;;;;;;12.90;99.90;;;;;;6246347;23;19931;-72
2022/12/22 08:54:21;;;;;;;;;;;12.90;99.90;;;;;;6246926;23;19907;-72
2022/12/22 08:56:47;;;;;;;;;;;12.90;99.90;;;;;;6246141;23;19899;-71
2022/12/22 08:59:12;;;;;;;;;;;12.90;99.90;;;;;;6246592;23;19946;-70
2022/12/22 09:01:41;;;;;;;;;;;12.90;99.90;;;;;;6246496;23;19900;-72
2022/12/22 09:04:07;;;;;;;;;;;13.00;99.90;;;;;;6246295;23;19900;-70
2022/12/22 09:06:32;;;;;;;;;;;13.10;99.90;;;;;;6246196;23;19904;-69
2022/12/22 09:08:59;;;;;;;;;;;13.00;99.90;;;;;;6246669;23;19923;-73
2022/12/22 09:11:25;;;;;;;;;;;13.00;99.90;;;;;;6246350;23;19900;-69
2022/12/22 09:13:52;;;;;;;;;;;13.10;99.90;;;;;;6246351;23;19907;-72
2022/12/22 09:16:18;;;;;;;;;;;13.10;99.90;;;;;;6246497;23;19915;-71
2022/12/22 09:18:44;;;;;;;;;;;13.10;99.90;;;;;;6246632;23;19974;-69
2022/12/22 09:21:09;;;;;;;;;;;13.10;99.90;;;;;;6246244;23;19926;-71
2022/12/22 09:23:35;;;;;;;;;;;13.10;99.90;;;;;;6246552;23;19953;-70
2022/12/22 09:26:05;;;;;;;;;;;13.20;99.90;;;;;;6245827;22;19904;-71
2022/12/22 09:28:31;;;;;;;;;;;13.20;99.90;;;;;;6246834;23;19978;-73
2022/12/22 09:30:56;;;;;;;;;;;13.20;99.90;;;;;;6246229;23;19938;-71
2022/12/22 09:33:25;;;;;;;;;;;13.20;99.90;;;;;;6246494;23;19918;-71
2022/12/22 09:35:50;;;;;;;;;;;13.20;99.90;;;;;;6219511;23;19900;-71
2022/12/22 09:38:16;;;;;;;;;;;13.20;99.90;;;;;;6246238;23;20273;-73
2022/12/22 09:40:42;;;;;;;;;;;13.20;99.90;;;;;;6219412;23;19899;-71
2022/12/22 09:43:08;;;;;;;;;;;13.20;99.90;;;;;;6245971;23;19904;-70
2022/12/22 09:45:34;;;;;;;;;;;13.10;99.90;;;;;;6245624;23;19938;-72
2022/12/22 09:48:00;;;;;;;;;;;13.10;99.90;;;;;;6246325;23;19900;-70
2022/12/22 09:50:26;;;;;;;;;;;13.10;99.90;;;;;;6246220;23;19911;-70
2022/12/22 09:52:57;;;;;;;;;;;13.10;99.90;;;;;;6245962;23;20234;-71
2022/12/22 09:55:23;;;;;;;;;;;13.20;99.90;;;;;;6246151;23;19899;-70
2022/12/22 09:57:49;;;;;;;;;;;13.20;99.90;;;;;;6218957;23;19910;-71
2022/12/22 10:00:16;;;;;;;;;;;13.20;99.90;;;;;;6246322;23;19900;-70
2022/12/22 10:02:48;;;;;;;;;;;13.20;99.90;;;;;;6245941;23;19900;-71
2022/12/22 10:05:27;;;;;;;;;;;13.10;99.90;;;;;;6245683;23;19906;-70
2022/12/22 10:07:57;;;;;;;;;;;13.10;99.90;;;;;;6243925;23;20303;-70
2022/12/22 10:10:26;;;;;;;;;;;13.00;99.90;;;;;;6246107;23;19903;-74
2022/12/22 10:12:56;;;;;;;;;;;13.00;99.90;;;;;;6246762;23;19900;-77
2022/12/22 10:15:22;;;;;;;;;;;13.00;99.90;;;;;;6245326;23;19927;-73
2022/12/22 10:17:51;;;;;;;;;;;13.10;99.90;;;;;;6245623;23;19910;-71
2022/12/22 10:20:20;;;;;;;;;;;13.10;99.90;;;;;;6246809;23;19899;-70
2022/12/22 10:22:46;;;;;;;;;;;13.20;99.90;;;;;;6246786;23;19953;-71
2022/12/22 10:25:24;;;;;;;;;;;13.20;99.90;;;;;;6247034;22;19900;-71
2022/12/22 10:27:49;;;;;;;;;;;13.20;99.90;;;;;;6247602;23;19903;-74
2022/12/22 10:30:23;;;;;;;;;;;13.20;99.90;;;;;;6247418;23;20310;-74
2022/12/22 10:33:05;;;;;;;;;;;13.20;99.90;;;;;;6246838;23;19912;-77
2022/12/22 10:35:42;;;;;;;;;;;13.30;99.90;;;;;;6248632;23;19965;-71
2022/12/22 10:38:27;;;;;;;;;;;13.30;99.90;;;;;;6248378;23;19933;-72
2022/12/22 10:41:16;;;;;;;;;;;13.30;99.90;;;;;;6247676;23;19966;-75
2022/12/22 10:44:02;;;;;;;;;;;13.20;99.90;;;;;;6227951;23;19907;-70
2022/12/22 10:46:34;;;;;;;;;;;13.20;99.90;;;;;;6248117;23;19904;-70
2022/12/22 10:49:20;;;;;;;;;;;13.20;99.90;;;;;;6250045;23;20333;-72
2022/12/22 10:52:12;;;;;;;;;;;13.30;99.90;;;;;;6247048;23;20368;-69
2022/12/22 10:54:41;;;;;;;;;;;13.30;99.90;;;;;;6189774;23;19906;-72
2022/12/22 10:57:12;;;;;;;;;;;13.40;99.90;;;;;;6247843;23;19907;-70
2022/12/22 11:00:04;;;;;;;;;;;13.40;99.90;;;;;;6248128;23;20325;-76
2022/12/22 11:02:33;;;;;;;;;;;13.40;99.90;;;;;;6190140;23;19954;-70
2022/12/22 11:05:01;;;;;;;;;;;13.30;99.90;;;;;;6248114;23;19906;-73
2022/12/22 11:07:29;;;;;;;;;;;13.40;99.90;;;;;;6247502;23;19994;-72
2022/12/22 11:09:55;;;;;;;;;;;13.30;99.90;;;;;;6247456;23;19929;-71
2022/12/22 11:12:38;;;;;;;;;;;13.40;99.90;;;;;;6247481;23;19900;-74
2022/12/22 11:15:23;;;;;;;;;;;13.40;99.90;;;;;;6247458;23;19903;-71
2022/12/22 11:18:14;;;;;;;;;;;13.40;99.90;;;;;;6247536;23;20333;-72
2022/12/22 11:20:40;;;;;;;;;;;13.50;99.90;;;;;;6188901;23;19900;-72
2022/12/22 11:23:08;;;;;;;;;;;13.50;99.90;;;;;;6247235;23;19899;-72
2022/12/22 11:25:55;;;;;;;;;;;13.50;99.90;;;;;;6247304;22;19899;-71
2022/12/22 11:28:20;;;;;;;;;;;13.50;99.90;;;;;;6220446;23;19906;-72
2022/12/22 11:30:58;;;;;;;;;;;13.40;99.90;;;;;;6247967;23;19975;-74
2022/12/22 11:33:26;;;;;;;;;;;13.40;99.90;;;;;;6247575;23;19900;-70
2022/12/22 11:35:52;;;;;;;;;;;13.30;99.90;;;;;;6247820;23;20397;-72
2022/12/22 11:38:28;;;;;;;;;;;13.30;99.90;;;;;;6247643;23;19900;-69
2022/12/22 11:41:08;;;;;;;;;;;13.30;99.90;;;;;;6248572;23;20321;-72
2022/12/22 11:43:45;;;;;;;;;;;13.30;99.90;;;;;;6247315;23;19949;-70
2022/12/22 11:46:17;;;;;;;;;;;13.30;99.90;;;;;;6247964;23;19904;-70
2022/12/22 11:48:58;;;;;;;;;;;13.30;99.90;;;;;;6247336;23;19906;-71
2022/12/22 11:51:49;;;;;;;;;;;13.30;99.90;;;;;;6247649;23;19900;-73
2022/12/22 11:54:30;;;;;;;;;;;13.30;99.90;;;;;;6247612;23;19982;-71
2022/12/22 11:57:06;;;;;;;;;;;13.40;99.90;;;;;;6247201;23;20270;-71
2022/12/22 11:59:40;;;;;;;;;;;13.50;99.90;;;;;;6247611;23;19900;-70
2022/12/22 12:02:06;;;;;;;;;;;13.60;99.90;;;;;;6247212;23;19907;-72
2022/12/22 12:04:34;;;;;;;;;;;13.60;99.90;;;;;;6247074;23;19899;-70
2022/12/22 12:07:09;;;;;;;;;;;13.50;99.90;;;;;;6247363;23;20302;-72
2022/12/22 12:09:37;;;;;;;;;;;13.50;99.90;;;;;;6247473;23;19904;-69
2022/12/22 12:12:08;;;;;;;;;;;13.40;99.90;;;;;;6247376;23;20299;-72
2022/12/22 12:14:43;;;;;;;;;;;13.30;99.90;;;;;;6246984;23;19926;-70
2022/12/22 12:17:24;;;;;;;;;;;13.40;99.90;;;;;;6247752;23;20294;-72
2022/12/22 12:19:58;;;;;;;;;;;13.30;99.90;;;;;;6246977;23;20302;-72
2022/12/22 12:22:23;;;;;;;;;;;13.30;99.90;;;;;;6247744;23;19937;-73
2022/12/22 12:24:55;;;;;;;;;;;13.40;99.90;;;;;;6246845;22;20282;-73
2022/12/22 12:27:23;;;;;;;;;;;13.40;99.90;;;;;;6247182;23;20269;-68
2022/12/22 12:30:09;;;;;;;;;;;13.40;99.90;;;;;;6247243;23;19899;-70
2022/12/22 12:32:38;;;;;;;;;;;13.50;99.90;;;;;;6220369;23;20227;-69
2022/12/22 12:35:33;;;;;;;;;;;13.50;99.90;;;;;;6246828;23;19900;-68
2022/12/22 12:38:18;;;;;;;;;;;13.50;99.90;;;;;;6214156;23;19907;-68
2022/12/22 12:40:46;;;;;;;;;;;13.60;99.90;;;;;;6246813;23;20273;-68
2022/12/22 12:43:12;;;;;;;;;;;13.80;99.90;;;;;;6246780;23;19899;-70
2022/12/22 12:45:40;;;;;;;;;;;13.90;99.90;;;;;;6246680;23;19947;-69
2022/12/22 12:48:21;;;;;;;;;;;14.10;99.90;;;;;;6219859;23;20219;-70
2022/12/22 12:50:57;;;;;;;;;;;14.30;99.90;;;;;;6247066;23;19899;-70
2022/12/22 12:53:23;;;;;;;;;;;14.40;99.90;;;;;;6247132;23;19900;-70
2022/12/22 12:55:48;;;;;;;;;;;14.50;99.90;;;;;;6247034;23;19925;-69
2022/12/22 12:58:41;;;;;;;;;;;14.50;99.90;;;;;;6246651;23;19930;-72
2022/12/22 13:01:12;;;;;;;;;;;14.50;99.90;;;;;;6213888;23;19899;-74
2022/12/22 13:03:39;;;;;;;;;;;14.50;99.90;;;;;;6246630;23;20234;-72
2022/12/22 13:06:06;;;;;;;;;;;14.50;99.90;;;;;;6247213;23;19909;-69
2022/12/22 13:08:50;;;;;;;;;;;14.40;99.90;;;;;;6246584;23;19909;-70
2022/12/22 13:11:17;;;;;;;;;;;14.50;99.90;;;;;;6246967;23;19930;-75
2022/12/22 13:13:44;;;;;;;;;;;14.50;99.90;;;;;;6246572;23;19900;-73
2022/12/22 13:16:10;;;;;;;;;;;14.70;99.90;;;;;;6246090;23;19899;-74
2022/12/22 13:18:38;;;;;;;;;;;14.70;99.90;;;;;;6246527;23;19908;-71
2022/12/22 13:21:21;;;;;;;;;;;14.80;99.90;;;;;;6219683;23;19900;-73
2022/12/22 13:23:53;;;;;;;;;;;15.00;99.90;;;;;;6246545;22;19949;-72
2022/12/22 13:26:21;;;;;;;;;;;15.10;99.90;;;;;;6246431;23;19930;-74
2022/12/22 13:28:54;;;;;;;;;;;15.10;99.90;;;;;;6246442;23;20280;-75
2022/12/22 13:31:23;;;;;;;;;;;15.00;99.90;;;;;;6246229;23;19918;-71
2022/12/22 13:33:55;;;;;;;;;;;15.00;99.90;;;;;;6246413;23;19906;-72
2022/12/22 13:36:23;;;;;;;;;;;15.00;99.90;;;;;;6247085;23;19900;-73
2022/12/22 13:38:58;;;;;;;;;;;15.00;99.90;;;;;;6246397;23;19900;-71
2022/12/22 13:41:23;;;;;;;;;;;15.00;99.90;;;;;;6246732;23;19978;-74
2022/12/22 13:43:53;;;;;;;;;;;14.90;99.90;;;;;;6247048;23;20258;-72
2022/12/22 13:46:19;;;;;;;;;;;14.80;99.90;;;;;;6248637;23;19942;-71
2022/12/22 13:48:46;;;;;;;;;;;14.80;99.90;;;;;;6248427;23;19899;-71
2022/12/22 13:51:22;;;;;;;;;;;14.90;99.90;;;;;;6248487;23;19922;-70
2022/12/22 13:53:50;;;;;;;;;;;14.90;99.90;;;;;;6248653;23;19900;-73
2022/12/22 13:56:18;;;;;;;;;;;14.90;99.90;;;;;;6248322;23;20345;-72
2022/12/22 13:58:45;;;;;;;;;;;14.80;99.90;;;;;;6248659;23;19900;-74
2022/12/22 14:01:10;;;;;;;;;;;14.80;99.90;;;;;;6248266;23;19975;-75
2022/12/22 14:03:57;;;;;;;;;;;14.70;99.90;;;;;;6249024;23;19899;-73
2022/12/22 14:06:25;;;;;;;;;;;14.70;99.90;;;;;;6247483;23;19907;-72
2022/12/22 14:08:51;;;;;;;;;;;14.70;99.90;;;;;;6249011;23;20319;-72
2022/12/22 14:11:16;;;;;;;;;;;14.70;99.90;;;;;;6248300;23;19899;-72
2022/12/22 14:13:43;;;;;;;;;;;14.80;99.90;;;;;;6248154;23;19907;-77
2022/12/22 14:16:11;;;;;;;;;;;14.90;99.90;;;;;;6248206;23;19923;-72
2022/12/22 14:18:37;;;;;;;;;;;15.00;99.90;;;;;;6248227;23;19899;-74
2022/12/22 14:21:02;;;;;;;;;;;15.10;99.90;;;;;;6248181;23;20380;-75
2022/12/22 14:23:32;;;;;;;;;;;15.30;99.90;;;;;;6248106;23;19899;-74
2022/12/22 14:25:58;;;;;;;;;;;15.20;99.90;;;;;;6248234;22;20030;-73
2022/12/22 14:28:28;;;;;;;;;;;15.10;99.90;;;;;;6221248;23;19903;-72
2022/12/22 14:30:56;;;;;;;;;;;15.00;99.90;;;;;;6247880;22;20310;-73
2022/12/22 14:33:22;;;;;;;;;;;14.90;99.90;;;;;;6221016;23;19962;-77
2022/12/22 14:35:48;;;;;;;;;;;14.90;99.90;;;;;;6248058;23;19907;-75
2022/12/22 14:38:17;;;;;;;;;;;15.00;99.90;;;;;;6247949;23;19978;-74
2022/12/22 14:40:42;;;;;;;;;;;14.90;99.90;;;;;;6247920;23;19945;-73
2022/12/22 14:43:17;;;;;;;;;;;14.80;99.90;;;;;;6247991;23;19937;-71
2022/12/22 14:45:43;;;;;;;;;;;14.70;99.90;;;;;;6248123;23;19907;-72
2022/12/22 14:48:15;;;;;;;;;;;14.80;99.90;;;;;;6247694;23;19906;-73
2022/12/22 14:50:46;;;;;;;;;;;14.80;99.90;;;;;;6247340;23;19907;-72
2022/12/22 14:53:13;;;;;;;;;;;14.80;99.90;;;;;;6247421;23;19983;-71
2022/12/22 14:55:39;;;;;;;;;;;14.80;99.90;;;;;;6246808;23;19936;-72
2022/12/22 14:58:20;;;;;;;;;;;14.90;99.90;;;;;;6247523;23;19942;-72
2022/12/22 15:00:47;;;;;;;;;;;14.90;99.90;;;;;;6247404;23;19929;-75
2022/12/22 15:03:31;;;;;;;;;;;14.90;99.90;;;;;;6247628;23;19900;-70
2022/12/22 15:06:17;;;;;;;;;;;15.00;99.90;;;;;;6247610;23;19903;-69
2022/12/22 15:08:42;;;;;;;;;;;14.90;99.90;;;;;;6247883;23;20029;-69
2022/12/22 15:11:16;;;;;;;;;;;14.90;99.90;;;;;;6247686;23;19903;-70
2022/12/22 15:13:42;;;;;;;;;;;15.00;99.90;;;;;;6248370;23;20218;-72
2022/12/22 15:16:11;;;;;;;;;;;15.00;99.90;;;;;;6220743;23;19900;-74
2022/12/22 15:18:37;;;;;;;;;;;14.90;99.90;;;;;;6247846;23;19926;-75
2022/12/22 15:21:03;;;;;;;;;;;14.90;99.90;;;;;;6247471;23;20238;-76
2022/12/22 15:23:28;;;;;;;;;;;15.00;99.90;;;;;;6220724;23;19899;-71
2022/12/22 15:25:54;;;;;;;;;;;15.00;99.90;;;;;;6247658;22;19904;-75
2022/12/22 15:28:19;;;;;;;;;;;15.00;99.90;;;;;;6247492;23;19998;-74
2022/12/22 15:30:45;;;;;;;;;;;15.00;99.90;;;;;;6247823;23;19908;-73
2022/12/22 15:33:11;;;;;;;;;;;15.00;99.90;;;;;;6220486;23;19912;-72
2022/12/22 15:35:37;;;;;;;;;;;15.00;99.90;;;;;;6247423;23;19900;-73
2022/12/22 15:38:08;;;;;;;;;;;14.80;99.90;;;;;;6247451;23;19907;-73
2022/12/22 15:40:34;;;;;;;;;;;14.80;99.90;;;;;;6248115;23;19900;-74
2022/12/22 15:42:59;;;;;;;;;;;14.80;99.90;;;;;;6247533;23;19907;-72
2022/12/22 15:45:25;;;;;;;;;;;14.70;99.90;;;;;;6247359;23;20361;-69
2022/12/22 15:47:51;;;;;;;;;;;14.70;99.90;;;;;;6247264;23;19950;-73
2022/12/22 15:50:22;;;;;;;;;;;14.60;99.90;;;;;;6247661;23;19900;-73
2022/12/22 15:52:49;;;;;;;;;;;14.60;99.90;;;;;;6247307;23;19907;-73
2022/12/22 15:55:15;;;;;;;;;;;14.50;99.90;;;;;;6247199;23;19900;-73
2022/12/22 15:57:41;;;;;;;;;;;14.50;99.90;;;;;;6247250;23;19904;-71
2022/12/22 16:00:09;;;;;;;;;;;14.50;99.90;;;;;;6247201;23;20345;-72
2022/12/22 16:02:34;;;;;;;;;;;14.50;99.90;;;;;;6247109;23;19987;-72
2022/12/22 16:05:00;;;;;;;;;;;14.40;99.90;;;;;;6247131;23;19899;-74
2022/12/22 16:07:25;;;;;;;;;;;14.40;99.90;;;;;;6247520;23;20317;-72
2022/12/22 16:09:51;;;;;;;;;;;14.40;99.90;;;;;;6247041;23;19949;-73
2022/12/22 16:12:17;;;;;;;;;;;14.40;99.90;;;;;;6247070;23;19899;-74
2022/12/22 16:14:44;;;;;;;;;;;14.40;99.90;;;;;;6247420;23;19899;-72
2022/12/22 16:17:17;;;;;;;;;;;14.30;99.90;;;;;;6246887;23;19913;-76
2022/12/22 16:19:44;;;;;;;;;;;14.30;99.90;;;;;;6246999;23;19906;-74
2022/12/22 16:22:10;;;;;;;;;;;14.30;99.90;;;;;;6247387;23;19907;-72
2022/12/22 16:24:37;;;;;;;;;;;14.30;99.90;;;;;;6246859;22;19986;-74
2022/12/22 16:27:03;;;;;;;;;;;14.30;99.90;;;;;;6246793;23;19903;-73
2022/12/22 16:29:29;;;;;;;;;;;14.20;99.90;;;;;;6247660;23;19927;-74
2022/12/22 16:32:12;;;;;;;;;;;14.20;99.90;;;;;;6246695;23;19983;-73
2022/12/22 16:34:37;;;;;;;;;;;14.30;99.90;;;;;;6219703;23;19899;-72
2022/12/22 16:37:02;;;;;;;;;;;14.20;99.90;;;;;;6246845;23;19950;-75
2022/12/22 16:39:28;;;;;;;;;;;14.20;99.90;;;;;;6247148;23;20341;-72
2022/12/22 16:41:53;;;;;;;;;;;14.20;99.90;;;;;;6246799;23;19900;-72
2022/12/22 16:44:21;;;;;;;;;;;14.20;99.90;;;;;;6246813;23;19915;-74
2022/12/22 16:46:46;;;;;;;;;;;14.30;99.90;;;;;;6247350;23;20353;-74
2022/12/22 16:49:15;;;;;;;;;;;14.30;99.90;;;;;;6246734;23;19978;-73
2022/12/22 16:51:44;;;;;;;;;;;14.30;99.90;;;;;;6247043;23;19906;-72
2022/12/22 16:54:13;;;;;;;;;;;14.30;99.90;;;;;;6246753;23;19978;-73
2022/12/22 16:56:41;;;;;;;;;;;14.30;99.90;;;;;;6247029;23;20333;-72
2022/12/22 16:59:07;;;;;;;;;;;14.30;99.90;;;;;;6246688;23;19905;-74
2022/12/22 17:01:32;;;;;;;;;;;14.40;99.90;;;;;;6247350;23;19986;-71
2022/12/22 17:04:06;;;;;;;;;;;14.40;99.90;;;;;;6246639;23;19900;-74
2022/12/22 17:06:32;;;;;;;;;;;14.40;99.90;;;;;;6246573;23;20306;-73
2022/12/22 17:08:58;;;;;;;;;;;14.30;99.90;;;;;;6247301;23;19900;-72
2022/12/22 17:11:26;;;;;;;;;;;14.40;99.90;;;;;;6246537;23;20343;-72
2022/12/22 17:13:52;;;;;;;;;;;14.40;99.90;;;;;;6246922;23;19953;-72
2022/12/22 17:16:19;;;;;;;;;;;14.40;99.90;;;;;;6246457;23;19922;-72
2022/12/22 17:18:45;;;;;;;;;;;14.40;99.90;;;;;;6246907;23;19899;-74
2022/12/22 17:21:11;;;;;;;;;;;14.40;99.90;;;;;;6246912;23;20288;-71
2022/12/22 17:23:38;;;;;;;;;;;14.30;99.90;;;;;;6246827;23;19900;-73
2022/12/22 17:26:09;;;;;;;;;;;14.40;99.90;;;;;;6246268;22;20310;-70
2022/12/22 17:28:35;;;;;;;;;;;14.40;99.90;;;;;;6246397;23;19975;-71
2022/12/22 17:31:00;;;;;;;;;;;14.30;99.90;;;;;;6246230;22;19899;-72
2022/12/22 17:33:26;;;;;;;;;;;14.30;99.90;;;;;;6246845;23;19915;-73
2022/12/22 17:35:52;;;;;;;;;;;14.20;99.90;;;;;;6246409;23;19899;-75
2022/12/22 17:38:19;;;;;;;;;;;14.20;99.90;;;;;;6246414;23;19981;-73
2022/12/22 17:40:46;;;;;;;;;;;14.10;99.90;;;;;;6246431;23;19906;-72
2022/12/22 17:43:13;;;;;;;;;;;14.10;99.90;;;;;;6246834;23;19906;-74
2022/12/22 17:45:39;;;;;;;;;;;14.10;99.90;;;;;;6246362;23;19923;-71
2022/12/22 17:48:05;;;;;;;;;;;14.10;99.90;;;;;;6247090;23;19950;-72
2022/12/22 17:50:30;;;;;;;;;;;14.10;99.90;;;;;;6246349;23;19965;-72
2022/12/22 17:52:56;;;;;;;;;;;14.00;99.90;;;;;;6246368;23;19899;-73
2022/12/22 17:55:23;;;;;;;;;;;14.10;99.90;;;;;;6246701;23;20287;-74
2022/12/22 17:57:48;;;;;;;;;;;14.10;99.90;;;;;;6246311;23;19899;-74
2022/12/22 18:00:18;;;;;;;;;;;14.10;99.90;;;;;;6246690;23;20329;-71
2022/12/22 18:02:43;;;;;;;;;;;14.10;99.90;;;;;;6246209;23;19949;-73